createdAt,value
2024-01-11T00:02:16.608Z,92950.53
2024-01-11T00:05:20.759Z,92939.56
2024-01-11T00:08:24.442Z,92939.88
2024-01-11T00:11:28.428Z,92939.91
2024-01-11T00:14:32.200Z,92938.44
2024-01-11T00:17:36.738Z,92944.94
2024-01-11T00:20:40.395Z,92951.47
2024-01-11T00:23:44.383Z,92953.94
2024-01-11T00:26:47.938Z,92953.91
2024-01-11T00:29:52.529Z,92959.41
2024-01-11T00:32:56.705Z,92958.97
2024-01-11T00:36:01.439Z,92962.44
2024-01-11T00:39:05.462Z,92965.28
2024-01-11T00:42:09.252Z,92973.28
2024-01-11T00:45:13.929Z,92969.59
2024-01-11T00:48:18.721Z,92973.63
2024-01-11T00:51:22.469Z,92979.50
2024-01-11T00:54:26.892Z,92983.25
2024-01-11T00:57:30.466Z,92977.19
2024-01-11T01:00:34.083Z,92980.22
2024-01-11T01:03:38.489Z,92986.06
2024-01-11T01:06:43.553Z,92976.25
2024-01-11T01:09:47.081Z,92972.34
2024-01-11T01:12:50.835Z,92969.09
2024-01-11T01:15:54.440Z,92976.03
2024-01-11T01:18:58.389Z,92977.09
2024-01-11T01:22:02.114Z,92965.63
2024-01-11T01:25:06.381Z,92972.50
2024-01-11T01:28:10.437Z,92965.06
2024-01-11T01:31:14.376Z,92963.38
2024-01-11T01:34:17.967Z,92973.06
2024-01-11T01:37:21.784Z,92967.44
2024-01-11T01:40:26.376Z,92973.66
2024-01-11T01:43:30.091Z,92965.03
2024-01-11T01:46:34.687Z,92969.19
2024-01-11T01:49:41.025Z,92966.56
2024-01-11T01:52:46.236Z,92966.56
2024-01-11T01:55:50.294Z,92966.00
2024-01-11T01:58:55.592Z,92968.16
2024-01-11T02:01:59.739Z,92978.84
2024-01-11T02:05:04.185Z,92974.47
2024-01-11T02:08:10.827Z,92988.00
2024-01-11T02:11:14.456Z,92987.47
2024-01-11T02:14:18.350Z,92984.50
2024-01-11T02:17:23.118Z,92992.16
2024-01-11T02:20:26.895Z,92995.81
2024-01-11T02:23:31.280Z,92988.13
2024-01-11T02:26:36.053Z,92990.81
2024-01-11T02:29:40.197Z,92990.81
2024-01-11T02:32:48.207Z,92986.56
2024-01-11T02:35:53.109Z,92992.03
2024-01-11T02:38:57.694Z,92985.41
2024-01-11T02:42:02.487Z,92984.31
2024-01-11T02:45:06.947Z,92999.28
2024-01-11T02:48:10.702Z,92998.19
2024-01-11T02:51:14.423Z,93003.09
2024-01-11T02:54:18.342Z,93001.09
2024-01-11T02:57:21.944Z,92993.03
2024-01-11T03:00:25.580Z,92998.78
2024-01-11T03:03:29.325Z,92997.00
2024-01-11T03:06:33.540Z,92988.09
2024-01-11T03:09:37.465Z,92993.06
2024-01-11T03:12:41.974Z,92984.19
2024-01-11T03:15:45.688Z,92982.50
2024-01-11T03:18:49.584Z,92972.00
2024-01-11T03:21:53.412Z,92971.72
2024-01-11T03:24:56.977Z,92974.19
2024-01-11T03:28:01.170Z,92968.47
2024-01-11T03:31:05.213Z,92967.97
2024-01-11T03:34:09.572Z,92966.09
2024-01-11T03:37:13.500Z,92966.97
2024-01-11T03:40:17.156Z,92961.94
2024-01-11T03:43:21.069Z,92964.91
2024-01-11T03:46:24.825Z,92963.91
2024-01-11T03:49:28.308Z,92954.03
2024-01-11T03:52:32.128Z,92947.69
2024-01-11T03:55:36.366Z,92952.34
2024-01-11T03:58:42.390Z,92957.84
2024-01-11T04:01:46.199Z,92973.25
2024-01-11T04:04:49.861Z,92956.78
2024-01-11T04:07:53.614Z,92971.13
2024-01-11T04:10:57.259Z,92965.78
2024-01-11T04:14:00.846Z,92957.44
2024-01-11T04:17:05.501Z,92949.88
2024-01-11T04:20:12.580Z,92947.47
2024-01-11T04:23:16.224Z,92953.78
2024-01-11T04:26:20.226Z,92954.78
2024-01-11T04:29:23.762Z,92945.91
2024-01-11T04:32:27.497Z,92956.06
2024-01-11T04:35:31.282Z,92958.66
2024-01-11T04:38:35.038Z,92954.91
2024-01-11T04:41:39.064Z,92961.66
2024-01-11T04:44:42.781Z,92942.41
2024-01-11T04:47:46.678Z,92952.69
2024-01-11T04:50:50.364Z,92949.59
2024-01-11T04:53:54.986Z,92939.38
2024-01-11T04:56:58.484Z,92941.00
2024-01-11T05:00:03.790Z,92947.84
2024-01-11T05:03:08.162Z,92939.53
2024-01-11T05:06:21.410Z,92935.16
2024-01-11T05:09:25.054Z,92934.25
2024-01-11T05:12:28.543Z,92932.88
2024-01-11T05:15:32.434Z,92943.56
2024-01-11T05:18:36.365Z,92928.66
2024-01-11T05:21:39.841Z,92935.63
2024-01-11T05:24:43.494Z,92932.25
2024-01-11T05:27:47.094Z,92930.00
2024-01-11T05:30:51.171Z,92919.91
2024-01-11T05:33:55.273Z,92916.94
2024-01-11T05:37:00.933Z,92929.66
2024-01-11T05:40:05.389Z,92919.50
2024-01-11T05:43:08.955Z,92915.16
2024-01-11T05:46:12.701Z,92909.81
2024-01-11T05:49:17.087Z,92907.16
2024-01-11T05:52:21.609Z,92901.38
2024-01-11T05:55:25.343Z,92896.47
2024-01-11T05:58:28.853Z,92899.97
2024-01-11T06:01:33.863Z,92903.22
2024-01-11T06:04:37.814Z,92905.81
2024-01-11T06:07:41.855Z,92907.47
2024-01-11T06:10:45.457Z,92894.28
2024-01-11T06:13:49.694Z,92887.31
2024-01-11T06:16:53.536Z,92888.56
2024-01-11T06:19:57.482Z,92891.88
2024-01-11T06:23:01.355Z,92888.94
2024-01-11T06:26:05.379Z,92892.00
2024-01-11T06:29:09.338Z,92894.38
2024-01-11T06:32:13.629Z,92885.53
2024-01-11T06:35:17.358Z,92885.75
2024-01-11T06:38:21.064Z,92882.56
2024-01-11T06:41:24.698Z,92881.22
2024-01-11T06:44:28.292Z,92876.13
2024-01-11T06:47:32.359Z,92872.72
2024-01-11T06:50:36.798Z,92871.59
2024-01-11T06:53:40.430Z,92881.88
2024-01-11T06:56:44.294Z,92885.69
2024-01-11T06:59:48.339Z,92880.22
2024-01-11T07:02:52.593Z,92890.94
2024-01-11T07:05:56.338Z,92898.56
2024-01-11T07:09:00.307Z,92902.84
2024-01-11T07:12:03.918Z,92889.41
2024-01-11T07:15:09.982Z,92899.25
2024-01-11T07:18:13.866Z,92892.75
2024-01-11T07:21:33.558Z,92898.69
2024-01-11T07:24:39.695Z,92897.91
2024-01-11T07:27:43.457Z,92894.72
2024-01-11T07:30:51.164Z,92903.31
2024-01-11T07:33:54.979Z,92898.50
2024-01-11T07:36:58.785Z,92898.09
2024-01-11T07:40:02.661Z,92895.91
2024-01-11T07:43:06.406Z,92900.66
2024-01-11T07:46:09.896Z,92893.25
2024-01-11T07:49:13.485Z,92904.59
2024-01-11T07:52:21.546Z,92906.03
2024-01-11T07:55:26.201Z,92913.59
2024-01-11T07:58:29.869Z,92918.03
2024-01-11T08:01:33.381Z,92922.28
2024-01-11T08:04:37.980Z,92921.03
2024-01-11T08:07:41.838Z,92926.31
2024-01-11T08:10:45.344Z,92930.72
2024-01-11T08:13:49.216Z,92938.97
2024-01-11T08:16:55.358Z,92937.75
2024-01-11T08:19:59.315Z,92947.22
2024-01-11T08:23:03.160Z,92949.78
2024-01-11T08:26:07.320Z,92944.56
2024-01-11T08:29:11.389Z,92960.38
2024-01-11T08:32:24.395Z,92952.81
2024-01-11T08:35:34.884Z,92956.25
2024-01-11T08:38:38.714Z,92958.25
2024-01-11T08:41:42.669Z,92962.66
2024-01-11T08:44:46.836Z,92958.41
2024-01-11T08:47:50.613Z,92957.13
2024-01-11T08:50:54.501Z,92966.56
2024-01-11T08:53:58.537Z,92966.88
2024-01-11T08:57:03.821Z,92972.13
2024-01-11T09:00:10.366Z,92973.94
2024-01-11T09:03:15.912Z,92974.53
2024-01-11T09:06:19.459Z,92972.03
2024-01-11T09:09:23.212Z,92970.06
2024-01-11T09:12:26.655Z,92971.34
2024-01-11T09:15:30.671Z,92967.97
2024-01-11T09:18:36.359Z,92970.88
2024-01-11T09:21:39.924Z,92977.28
2024-01-11T09:24:43.595Z,92973.81
2024-01-11T09:27:47.221Z,92974.09
2024-01-11T09:30:51.616Z,92974.59
2024-01-11T09:33:55.988Z,92976.47
2024-01-11T09:37:00.889Z,92988.47
2024-01-11T09:40:05.838Z,92996.56
2024-01-11T09:43:12.376Z,93004.47
2024-01-11T09:46:17.338Z,93013.53
2024-01-11T09:49:24.082Z,93012.50
2024-01-11T09:52:28.793Z,93021.38
2024-01-11T09:55:32.341Z,93021.75
2024-01-11T09:58:40.631Z,93023.47
2024-01-11T10:01:45.221Z,93028.28
2024-01-11T10:04:49.191Z,93028.50
2024-01-11T10:07:52.885Z,93025.31
2024-01-11T10:10:56.372Z,93035.72
2024-01-11T10:14:02.628Z,93046.06
2024-01-11T10:17:07.125Z,93044.81
2024-01-11T10:20:12.750Z,93050.59
2024-01-11T10:23:16.894Z,93057.97
2024-01-11T10:26:21.308Z,93056.56
2024-01-11T10:29:25.949Z,93062.34
2024-01-11T10:32:31.213Z,93062.66
2024-01-11T10:35:37.861Z,93067.41
2024-01-11T10:38:42.968Z,93072.41
2024-01-11T10:41:59.770Z,93079.94
2024-01-11T10:45:07.444Z,93080.66
2024-01-11T10:48:23.026Z,93076.53
2024-01-11T10:51:28.061Z,93078.44
2024-01-11T10:54:32.897Z,93074.56
2024-01-11T10:57:36.678Z,93080.69
2024-01-11T11:00:41.334Z,93079.53
2024-01-11T11:03:47.626Z,93082.88
2024-01-11T11:07:01.003Z,93082.88
2024-01-11T11:10:06.434Z,93087.59
2024-01-11T11:13:11.817Z,93078.06
2024-01-11T11:16:19.675Z,93083.00
2024-01-11T11:19:23.732Z,93077.16
2024-01-11T11:22:29.601Z,93072.56
2024-01-11T11:25:33.913Z,93084.25
2024-01-11T11:28:38.576Z,93084.72
2024-01-11T11:31:55.348Z,93081.94
2024-01-11T11:34:59.136Z,93097.53
2024-01-11T11:38:03.037Z,93103.84
2024-01-11T11:41:06.685Z,93113.88
2024-01-11T11:44:15.908Z,93126.47
2024-01-11T11:47:23.379Z,93121.13
2024-01-11T11:50:27.262Z,93119.53
2024-01-11T11:53:36.496Z,93129.50
2024-01-11T11:56:40.551Z,93138.84
2024-01-11T11:59:44.894Z,93142.09
2024-01-11T12:02:54.452Z,93134.91
2024-01-11T12:05:59.993Z,93152.13
2024-01-11T12:09:04.514Z,93153.03
2024-01-11T12:12:15.404Z,93154.91
2024-01-11T12:15:20.911Z,93153.03
2024-01-11T12:18:24.844Z,93157.22
2024-01-11T12:21:28.893Z,93166.75
2024-01-11T12:24:32.815Z,93161.34
2024-01-11T12:27:36.486Z,93168.56
2024-01-11T12:30:40.640Z,93170.41
2024-01-11T12:33:45.346Z,93175.75
2024-01-11T12:36:49.656Z,93186.19
2024-01-11T12:39:59.990Z,93179.00
2024-01-11T12:43:03.630Z,93179.47
2024-01-11T12:46:07.682Z,93175.50
2024-01-11T12:49:13.115Z,93180.84
2024-01-11T12:52:21.553Z,93190.78
2024-01-11T12:55:26.257Z,93188.66
2024-01-11T12:58:30.006Z,93195.13
2024-01-11T13:01:33.917Z,93191.88
2024-01-11T13:04:37.713Z,93196.06
2024-01-11T13:07:41.304Z,93195.09
2024-01-11T13:10:44.943Z,93197.59
2024-01-11T13:13:49.402Z,93207.78
2024-01-11T13:16:53.179Z,93204.00
2024-01-11T13:19:57.076Z,93207.88
2024-01-11T13:23:23.688Z,93209.75
2024-01-11T13:26:27.236Z,93205.03
2024-01-11T13:29:30.871Z,93204.78
2024-01-11T13:32:34.657Z,93209.00
2024-01-11T13:35:39.537Z,93212.59
2024-01-11T13:38:43.544Z,93212.13
2024-01-11T13:41:47.240Z,93210.47
2024-01-11T13:44:50.751Z,93209.28
2024-01-11T13:47:58.609Z,93203.41
2024-01-11T13:51:02.525Z,93196.44
2024-01-11T13:54:06.205Z,93192.72
2024-01-11T13:57:09.856Z,93194.78
2024-01-11T14:00:14.188Z,93195.81
2024-01-11T14:03:18.501Z,93197.41
2024-01-11T14:06:23.313Z,93203.44
2024-01-11T14:09:27.121Z,93207.56
2024-01-11T14:12:31.538Z,93214.78
2024-01-11T14:15:35.286Z,93210.41
2024-01-11T14:18:39.283Z,93220.06
2024-01-11T14:21:43.076Z,93223.78
2024-01-11T14:24:47.365Z,93213.78
2024-01-11T14:27:51.184Z,93210.53
2024-01-11T14:30:54.696Z,93215.06
2024-01-11T14:33:58.422Z,93227.00
2024-01-11T14:37:02.483Z,93230.44
2024-01-11T14:40:07.995Z,93246.00
2024-01-11T14:43:11.705Z,93249.00
2024-01-11T14:46:15.299Z,93257.81
2024-01-11T14:49:18.992Z,93262.81
2024-01-11T14:52:22.585Z,93277.31
2024-01-11T14:55:26.289Z,93281.91
2024-01-11T14:58:29.920Z,93285.38
2024-01-11T15:01:34.450Z,93282.34
2024-01-11T15:04:38.994Z,93287.06
2024-01-11T15:07:42.510Z,93277.94
2024-01-11T15:10:46.435Z,93284.97
2024-01-11T15:13:50.054Z,93289.25
2024-01-11T15:16:53.858Z,93283.16
2024-01-11T15:19:58.383Z,93301.22
2024-01-11T15:23:02.114Z,93322.75
2024-01-11T15:26:06.435Z,93316.34
2024-01-11T15:29:10.706Z,93329.25
2024-01-11T15:32:14.357Z,93320.56
2024-01-11T15:35:17.992Z,93322.47
2024-01-11T15:38:21.928Z,93328.63
2024-01-11T15:41:25.843Z,93335.88
2024-01-11T15:44:30.232Z,93334.69
2024-01-11T15:47:34.901Z,93333.47
2024-01-11T15:50:38.494Z,93346.72
2024-01-11T15:53:43.347Z,93352.59
2024-01-11T15:56:47.332Z,93350.78
2024-01-11T15:59:50.744Z,93347.97
2024-01-11T16:02:56.096Z,93364.53
2024-01-11T16:06:00.084Z,93380.06
2024-01-11T16:09:07.075Z,93383.16
2024-01-11T16:12:11.084Z,93388.00
2024-01-11T16:15:17.781Z,93388.69
2024-01-11T16:18:21.873Z,93390.25
2024-01-11T16:21:25.665Z,93390.44
2024-01-11T16:24:29.461Z,93391.72
2024-01-11T16:27:33.192Z,93398.88
2024-01-11T16:30:36.950Z,93404.53
2024-01-11T16:33:40.735Z,93409.63
2024-01-11T16:36:44.513Z,93401.69
2024-01-11T16:39:50.189Z,93407.69
2024-01-11T16:42:54.036Z,93409.91
2024-01-11T16:45:57.798Z,93419.72
2024-01-11T16:49:03.104Z,93429.09
2024-01-11T16:52:08.398Z,93422.84
2024-01-11T16:55:11.864Z,93420.19
2024-01-11T16:58:15.869Z,93429.81
2024-01-11T17:01:19.808Z,93417.94
2024-01-11T17:04:23.701Z,93421.19
2024-01-11T17:07:27.559Z,93424.03
2024-01-11T17:10:31.187Z,93418.53
2024-01-11T17:13:34.918Z,93413.91
2024-01-11T17:16:38.590Z,93410.66
2024-01-11T17:19:41.998Z,93411.94
2024-01-11T17:22:45.832Z,93415.34
2024-01-11T17:25:49.643Z,93417.47
2024-01-11T17:28:53.742Z,93432.88
2024-01-11T17:31:57.156Z,93437.56
2024-01-11T17:35:01.071Z,93441.16
2024-01-11T17:38:05.162Z,93451.34
2024-01-11T17:41:09.047Z,93459.97
2024-01-11T17:44:12.634Z,93464.38
2024-01-11T17:47:16.334Z,93474.53
2024-01-11T17:50:21.130Z,93477.38
2024-01-11T17:53:24.873Z,93468.03
2024-01-11T17:56:28.434Z,93475.09
2024-01-11T17:59:32.224Z,93473.97
2024-01-11T18:02:36.160Z,93484.28
2024-01-11T18:05:40.773Z,93493.03
2024-01-11T18:08:44.784Z,93500.94
2024-01-11T18:11:51.071Z,93509.78
2024-01-11T18:14:56.825Z,93510.06
2024-01-11T18:18:00.962Z,93499.91
2024-01-11T18:21:04.878Z,93509.53
2024-01-11T18:24:08.438Z,93521.50
2024-01-11T18:27:12.295Z,93509.84
2024-01-11T18:30:16.156Z,93517.72
2024-01-11T18:33:20.227Z,93516.44
2024-01-11T18:36:25.455Z,93522.50
2024-01-11T18:39:29.591Z,93525.56
2024-01-11T18:42:33.285Z,93531.06
2024-01-11T18:45:36.872Z,93535.84
2024-01-11T18:48:40.849Z,93538.13
2024-01-11T18:51:44.732Z,93540.38
2024-01-11T18:54:54.518Z,93527.47
2024-01-11T18:58:06.217Z,93535.41
2024-01-11T19:01:11.172Z,93550.09
2024-01-11T19:04:15.974Z,93543.34
2024-01-11T19:07:22.184Z,93542.94
2024-01-11T19:10:26.310Z,93547.31
2024-01-11T19:13:30.053Z,93535.72
2024-01-11T19:16:33.903Z,93540.56
2024-01-11T19:19:37.496Z,93540.09
2024-01-11T19:22:40.987Z,93551.63
2024-01-11T19:25:44.670Z,93549.41
2024-01-11T19:28:48.661Z,93555.47
2024-01-11T19:31:52.499Z,93567.63
2024-01-11T19:34:55.957Z,93560.28
2024-01-11T19:37:59.860Z,93566.59
2024-01-11T19:41:03.611Z,93561.19
2024-01-11T19:44:10.135Z,93558.03
2024-01-11T19:47:13.850Z,93552.97
2024-01-11T19:50:17.681Z,93574.50
2024-01-11T19:53:21.424Z,93578.97
2024-01-11T19:56:31.744Z,93581.34
2024-01-11T19:59:36.368Z,93583.91
2024-01-11T20:02:40.401Z,93582.28
2024-01-11T20:05:44.280Z,93584.34
2024-01-11T20:08:48.057Z,93588.28
2024-01-11T20:11:52.269Z,93594.25
2024-01-11T20:14:56.565Z,93597.06
2024-01-11T20:18:00.514Z,93599.47
2024-01-11T20:21:04.476Z,93597.56
2024-01-11T20:24:08.804Z,93592.59
2024-01-11T20:27:12.892Z,93590.38
2024-01-11T20:30:17.323Z,93588.97
2024-01-11T20:33:21.067Z,93594.41
2024-01-11T20:36:24.596Z,93593.69
2024-01-11T20:39:29.244Z,93593.19
2024-01-11T20:42:32.877Z,93586.22
2024-01-11T20:45:36.441Z,93595.66
2024-01-11T20:48:40.771Z,93596.31
2024-01-11T20:51:44.950Z,93596.91
2024-01-11T20:54:50.737Z,93593.69
2024-01-11T20:57:55.232Z,93591.16
2024-01-11T21:00:58.749Z,93590.88
2024-01-11T21:04:02.759Z,93588.75
2024-01-11T21:07:06.660Z,93586.34
2024-01-11T21:10:10.631Z,93591.28
2024-01-11T21:13:16.456Z,93593.25
2024-01-11T21:16:20.972Z,93590.38
2024-01-11T21:19:25.071Z,93578.69
2024-01-11T21:22:28.719Z,93587.63
2024-01-11T21:25:32.633Z,93589.06
2024-01-11T21:28:36.304Z,93593.91
2024-01-11T21:31:40.239Z,93590.59
2024-01-11T21:34:44.053Z,93600.25
2024-01-11T21:37:50.312Z,93596.41
2024-01-11T21:40:54.743Z,93595.06
2024-01-11T21:43:58.789Z,93606.94
2024-01-11T21:47:02.438Z,93584.47
2024-01-11T21:50:06.380Z,93591.53
2024-01-11T21:53:10.250Z,93589.81
2024-01-11T21:56:14.837Z,93598.75
2024-01-11T21:59:18.423Z,93603.38
2024-01-11T22:02:22.220Z,93609.25
2024-01-11T22:05:26.847Z,93598.84
2024-01-11T22:08:30.598Z,93606.31
2024-01-11T22:11:36.422Z,93618.44
2024-01-11T22:14:41.071Z,93614.78
2024-01-11T22:17:45.270Z,93619.25
2024-01-11T22:20:49.272Z,93612.66
2024-01-11T22:23:53.236Z,93608.50
2024-01-11T22:26:56.932Z,93615.00
2024-01-11T22:30:01.897Z,93622.97
2024-01-11T22:33:05.868Z,93612.56
2024-01-11T22:36:11.069Z,93593.38
2024-01-11T22:39:14.993Z,93606.31
2024-01-11T22:42:19.322Z,93609.44
2024-01-11T22:45:23.043Z,93617.25
2024-01-11T22:48:26.815Z,93613.91
2024-01-11T22:51:30.541Z,93606.22
2024-01-11T22:54:35.710Z,93606.13
2024-01-11T22:57:39.563Z,93616.56
2024-01-11T23:00:43.219Z,93613.09
2024-01-11T23:03:46.878Z,93618.97
2024-01-11T23:06:50.732Z,93623.44
2024-01-11T23:09:55.214Z,93620.16
2024-01-11T23:12:58.747Z,93620.53
2024-01-11T23:16:03.285Z,93625.88
2024-01-11T23:19:07.433Z,93613.03
2024-01-11T23:22:11.321Z,93623.75
2024-01-11T23:25:15.446Z,93624.84
2024-01-11T23:28:19.243Z,93633.03
2024-01-11T23:31:23.537Z,93634.47
2024-01-11T23:34:27.333Z,93644.69
2024-01-11T23:37:30.794Z,93649.16
2024-01-11T23:40:34.603Z,93664.88
2024-01-11T23:43:39.131Z,93661.19
2024-01-11T23:46:42.851Z,93657.97
2024-01-11T23:49:46.556Z,93661.78
2024-01-11T23:52:50.419Z,93669.91
2024-01-11T23:55:55.705Z,93676.97
2024-01-11T23:58:59.339Z,93681.09
